Time;durP1;ratioP1;P1;durP2;ratioP2;P2;SDS_P1;SDS_P2;PMS_P1;PMS_P2;Temp;Humidity;BMP_temperature;BMP_pressure;BME280_temperature;BME280_humidity;BME280_pressure;Samples;Min_cycle;Max_cycle;Signal;HPM_P1;HPM_P2
2022/12/21 00:01:49;;;;;;;6.80;4.68;;;7.00;99.90;;;;;;4839277;29;20053;-74
2022/12/21 00:04:14;;;;;;;7.13;4.47;;;8.10;99.90;;;;;;4853877;29;20057;-74
2022/12/21 00:06:40;;;;;;;7.07;4.82;;;7.70;99.90;;;;;;4853415;29;20406;-74
2022/12/21 00:09:10;;;;;;;7.05;5.03;;;6.90;99.90;;;;;;4853728;29;20050;-74
2022/12/21 00:11:36;;;;;;;7.03;4.43;;;6.70;99.90;;;;;;4836376;29;20057;-74
2022/12/21 00:14:04;;;;;;;6.30;4.20;;;7.30;99.90;;;;;;4855347;29;20067;-74
2022/12/21 00:16:32;;;;;;;5.93;4.13;;;7.80;99.90;;;;;;4852963;29;20045;-74
2022/12/21 00:18:59;;;;;;;7.70;5.72;;;7.40;99.90;;;;;;4856729;29;20044;-74
2022/12/21 00:21:30;;;;;;;9.55;6.78;;;8.20;99.90;;;;;;4855204;29;20051;-74
2022/12/21 00:23:58;;;;;;;7.30;5.55;;;8.20;99.90;;;;;;4854968;29;20133;-74
2022/12/21 00:26:26;;;;;;;6.97;5.20;;;8.00;99.90;;;;;;4855804;29;20078;-74
2022/12/21 00:28:53;;;;;;;6.70;5.20;;;6.70;99.90;;;;;;4855904;29;20489;-74
2022/12/21 00:31:26;;;;;;;6.40;5.28;;;7.80;99.90;;;;;;4854640;29;20084;-74
2022/12/21 00:33:53;;;;;;;8.65;6.65;;;8.10;99.90;;;;;;4853419;29;20149;-74
2022/12/21 00:36:20;;;;;;;8.13;6.20;;;7.90;99.90;;;;;;4848996;29;20132;-74
2022/12/21 00:38:49;;;;;;;6.75;5.68;;;6.90;99.90;;;;;;4855831;29;20100;-74
2022/12/21 00:41:20;;;;;;;6.32;5.20;;;6.50;99.90;;;;;;4855179;29;20050;-74
2022/12/21 00:43:46;;;;;;;6.55;5.20;;;6.50;99.90;;;;;;4856384;29;20045;-74
2022/12/21 00:46:30;;;;;;;5.97;4.75;;;6.20;99.90;;;;;;4842277;29;20060;-74
2022/12/21 00:48:57;;;;;;;5.93;4.95;;;6.20;99.90;;;;;;4842065;29;20201;-74
2022/12/21 00:51:24;;;;;;;5.35;4.15;;;7.30;99.90;;;;;;4859998;29;20051;-74
2022/12/21 00:53:51;;;;;;;4.03;3.33;;;7.40;99.90;;;;;;4857950;29;20405;-74
2022/12/21 00:56:18;;;;;;;4.85;3.67;;;7.70;99.90;;;;;;4828763;29;20046;-75
2022/12/21 00:58:44;;;;;;;4.28;3.40;;;7.70;99.90;;;;;;4858620;29;20053;-74
2022/12/21 01:01:18;;;;;;;5.95;4.93;;;7.70;99.90;;;;;;4855757;29;20037;-75
2022/12/21 01:03:44;;;;;;;5.57;4.70;;;7.50;99.90;;;;;;4854595;29;20045;-74
2022/12/21 01:06:15;;;;;;;6.57;5.20;;;6.70;99.90;;;;;;4855275;29;20493;-74
2022/12/21 01:08:41;;;;;;;8.52;6.50;;;8.00;99.90;;;;;;4852749;29;20049;-74
2022/12/21 01:11:09;;;;;;;11.10;8.68;;;7.80;99.90;;;;;;4857157;29;20098;-74
2022/12/21 01:13:35;;;;;;;9.98;8.10;;;5.90;99.90;;;;;;4857882;29;20081;-74
2022/12/21 01:16:01;;;;;;;9.23;7.60;;;6.20;99.90;;;;;;4859153;29;20105;-74
2022/12/21 01:18:26;;;;;;;10.77;8.27;;;7.80;99.90;;;;;;4856951;29;20041;-74
2022/12/21 01:20:54;;;;;;;9.57;7.32;;;7.90;99.90;;;;;;4840201;29;20037;-73
2022/12/21 01:23:20;;;;;;;8.88;7.00;;;6.50;99.90;;;;;;4840900;29;20057;-73
2022/12/21 01:25:47;;;;;;;9.32;7.05;;;8.00;99.90;;;;;;4856579;29;20049;-73
2022/12/21 01:28:14;;;;;;;7.90;6.25;;;7.70;99.90;;;;;;4856136;29;20042;-74
2022/12/21 01:30:40;;;;;;;;;;;6.40;99.90;;;;;;4852457;29;20045;-74
2022/12/21 01:33:11;;;;;;;8.50;6.00;;;7.60;99.90;;;;;;4858131;29;20395;-74
2022/12/21 01:35:41;;;;;;;8.30;6.30;;;5.70;99.90;;;;;;4857963;29;20045;-74
2022/12/21 01:38:07;;;;;;;9.90;6.57;;;8.20;99.90;;;;;;4853325;29;20120;-74
2022/12/21 01:40:33;;;;;;;6.85;5.40;;;7.00;99.90;;;;;;4858094;29;20045;-74
2022/12/21 01:42:59;;;;;;;6.63;4.60;;;5.70;99.90;;;;;;4841298;29;20042;-74
2022/12/21 01:45:30;;;;;;;7.90;5.50;;;8.20;99.90;;;;;;4858704;29;20155;-74
2022/12/21 01:47:59;;;;;;;6.82;5.20;;;7.40;99.90;;;;;;4863901;29;20101;-74
2022/12/21 01:50:25;;;;;;;8.35;6.18;;;8.10;99.90;;;;;;4858020;29;20056;-74
2022/12/21 01:52:52;;;;;;;9.43;6.55;;;5.90;99.90;;;;;;4843392;29;20041;-74
2022/12/21 01:55:18;;;;;;;7.30;5.38;;;8.10;99.90;;;;;;4856080;29;20049;-74
2022/12/21 01:57:44;;;;;;;8.73;5.47;;;9.00;99.90;;;;;;4855489;29;20048;-74
2022/12/21 02:00:10;;;;;;;;;;;8.10;99.90;;;;;;4856148;29;20053;-75
2022/12/21 02:02:58;;;;;;;8.35;5.68;;;4.90;99.90;;;;;;4842182;29;19920;-74
2022/12/21 02:05:37;;;;;;;8.20;5.85;;;8.60;99.90;;;;;;4827761;29;20089;-74
2022/12/21 02:08:04;;;;;;;8.35;5.65;;;5.50;99.90;;;;;;4872625;29;20119;-74
2022/12/21 02:10:31;;;;;;;7.00;5.05;;;5.70;99.90;;;;;;4856027;29;20042;-74
2022/12/21 02:13:09;;;;;;;5.70;4.60;;;5.20;99.90;;;;;;4841424;29;20500;-74
2022/12/21 02:15:59;;;;;;;9.32;6.80;;;5.10;99.90;;;;;;4856521;29;20061;-74
2022/12/21 02:18:51;;;;;;;7.13;5.53;;;5.30;99.90;;;;;;4855836;29;20371;-74
2022/12/21 02:21:21;;;;;;;8.55;6.47;;;7.40;99.90;;;;;;4854049;29;20037;-74
2022/12/21 02:24:10;;;;;;;6.97;5.45;;;7.80;99.90;;;;;;4855332;29;20121;-74
2022/12/21 02:27:03;;;;;;;8.63;6.22;;;7.20;99.90;;;;;;4853400;29;20058;-74
2022/12/21 02:30:06;;;;;;;8.35;6.50;;;7.00;99.90;;;;;;4854026;29;20520;-74
2022/12/21 02:33:00;;;;;;;7.40;6.20;;;8.20;99.90;;;;;;4855868;29;20125;-74
2022/12/21 02:35:29;;;;;;;6.55;5.15;;;7.80;99.90;;;;;;4836527;29;20093;-74
2022/12/21 02:38:13;;;;;;;8.52;6.05;;;4.80;99.90;;;;;;4854687;29;20053;-75
2022/12/21 02:40:56;;;;;;;7.60;5.78;;;7.90;99.90;;;;;;4844907;29;20141;-74
2022/12/21 02:46:38;;;;;;;6.90;5.45;;;5.00;99.90;;;;;;4855465;29;20048;-74
2022/12/21 02:49:14;;;;;;;6.95;4.93;;;7.40;99.90;;;;;;4857562;29;20049;-74
2022/12/21 02:52:05;;;;;;;6.68;4.90;;;4.70;99.90;;;;;;4855904;29;20045;-74
2022/12/21 02:54:33;;;;;;;7.60;5.95;;;6.50;99.90;;;;;;4839303;29;20067;-74
2022/12/21 02:56:59;;;;;;;7.55;5.45;;;7.50;99.90;;;;;;4837866;29;20394;-74
2022/12/21 02:59:29;;;;;;;7.20;5.55;;;7.10;99.90;;;;;;4855160;29;20045;-73
2022/12/21 03:02:18;;;;;;;6.70;5.00;;;7.40;99.90;;;;;;4852881;29;20038;-74
2022/12/21 03:05:12;;;;;;;7.10;5.60;;;5.10;99.90;;;;;;4854182;29;20049;-74
2022/12/21 03:07:50;;;;;;;7.40;5.57;;;6.90;99.90;;;;;;4851694;29;20058;-74
2022/12/21 03:10:54;;;;;;;6.75;5.18;;;4.70;99.90;;;;;;4853524;29;20049;-74
2022/12/21 03:13:33;;;;;;;6.82;5.38;;;7.70;99.90;;;;;;4863635;29;20049;-74
2022/12/21 03:16:09;;;;;;;6.50;5.10;;;7.70;99.90;;;;;;4868172;29;20038;-74
2022/12/21 03:18:40;;;;;;;6.85;5.20;;;5.50;99.90;;;;;;4856543;29;20072;-75
2022/12/21 03:21:16;;;;;;;5.28;4.22;;;6.00;99.90;;;;;;4849589;29;20045;-74
2022/12/21 03:23:50;;;;;;;5.47;4.20;;;4.50;99.90;;;;;;4858764;29;20079;-74
2022/12/21 03:26:22;;;;;;;5.88;4.30;;;4.50;99.90;;;;;;4855153;29;20059;-74
2022/12/21 03:28:49;;;;;;;5.32;4.35;;;4.80;99.90;;;;;;4854827;29;20128;-74
2022/12/21 03:31:20;;;;;;;4.90;3.95;;;4.50;99.90;;;;;;4854566;29;20049;-74
2022/12/21 03:34:02;;;;;;;6.47;4.70;;;4.40;99.90;;;;;;4854571;29;20053;-74
2022/12/21 03:36:48;;;;;;;4.20;3.53;;;4.90;99.90;;;;;;4855164;29;20045;-74
2022/12/21 03:39:18;;;;;;;5.30;4.15;;;4.80;99.90;;;;;;4854717;29;20470;-74
2022/12/21 03:42:06;;;;;;;4.88;3.60;;;7.10;99.90;;;;;;4853345;29;20113;-74
2022/12/21 03:44:49;;;;;;;4.80;3.90;;;6.40;99.90;;;;;;4850926;29;20148;-74
2022/12/21 03:47:26;;;;;;;5.05;3.70;;;4.50;99.90;;;;;;4849261;29;20124;-74
2022/12/21 03:50:00;;;;;;;5.45;4.10;;;7.30;99.90;;;;;;4853762;29;20056;-74
2022/12/21 03:52:34;;;;;;;7.43;5.15;;;7.70;99.90;;;;;;4853699;29;20595;-74
2022/12/21 03:55:17;;;;;;;7.25;5.35;;;4.50;99.90;;;;;;4855520;29;20053;-74
2022/12/21 03:57:44;;;;;;;6.90;5.22;;;4.70;99.90;;;;;;4835234;29;20053;-74
2022/12/21 04:00:11;;;;;;;5.93;4.80;;;7.70;99.90;;;;;;4851097;29;20042;-74
2022/12/21 04:02:58;;;;;;;6.28;4.93;;;7.50;99.90;;;;;;4855064;29;20057;-75
2022/12/21 04:05:33;;;;;;;5.80;4.87;;;7.20;99.90;;;;;;4853447;29;20501;-74
2022/12/21 04:08:01;;;;;;;5.85;4.60;;;5.10;99.90;;;;;;4853802;29;20046;-73
2022/12/21 04:10:27;;;;;;;4.70;3.92;;;7.40;99.90;;;;;;4854222;29;20129;-73
2022/12/21 04:12:53;;;;;;;4.38;3.75;;;4.70;99.90;;;;;;4847808;29;20050;-74
2022/12/21 04:15:24;;;;;;;5.82;4.47;;;7.10;99.90;;;;;;4853732;29;20079;-74
2022/12/21 04:17:52;;;;;;;5.75;4.28;;;6.10;99.90;;;;;;4840495;29;20129;-74
2022/12/21 04:20:20;;;;;;;4.70;3.72;;;5.40;99.90;;;;;;4858574;29;20042;-74
2022/12/21 04:28:24;;;;;;;6.45;4.20;;;6.90;99.90;;;;;;4855554;29;20056;-74
2022/12/21 04:30:50;;;;;;;5.10;3.72;;;4.40;99.90;;;;;;4858400;29;20049;-75
2022/12/21 04:33:18;;;;;;;5.40;4.03;;;7.50;99.90;;;;;;4856826;29;20599;-74
2022/12/21 04:38:31;;;;;;;5.47;3.97;;;6.90;99.90;;;;;;4855062;29;20056;-74
2022/12/21 04:40:57;;;;;;;5.68;3.97;;;4.40;99.90;;;;;;4858315;29;20052;-74
2022/12/21 04:43:24;;;;;;;5.63;3.95;;;6.00;99.90;;;;;;4840131;29;20129;-74
2022/12/21 04:45:58;;;;;;;;;;;6.50;99.90;;;;;;4858754;29;20053;-73
2022/12/21 04:48:23;;;;;;;4.68;3.45;;;7.50;99.90;;;;;;4839509;29;19946;-73
2022/12/21 04:50:49;;;;;;;7.13;4.32;;;5.80;99.90;;;;;;4857456;29;20541;-74
2022/12/21 04:53:15;;;;;;;6.82;4.72;;;7.40;99.90;;;;;;4859677;29;20033;-74
2022/12/21 04:55:45;;;;;;;6.70;4.47;;;7.40;99.90;;;;;;4840173;29;20092;-70
2022/12/21 04:58:10;;;;;;;5.85;4.10;;;7.30;99.90;;;;;;4853738;29;20116;-70
2022/12/21 05:00:36;;;;;;;4.40;3.55;;;7.30;99.90;;;;;;4854951;29;20120;-70
2022/12/21 05:03:02;;;;;;;5.50;4.13;;;7.20;99.90;;;;;;4854083;29;20078;-70
2022/12/21 05:05:28;;;;;;;7.05;4.35;;;4.70;99.90;;;;;;4856382;29;20485;-70
2022/12/21 05:07:54;;;;;;;5.55;3.90;;;5.70;99.90;;;;;;4836122;29;20159;-70
2022/12/21 05:10:20;;;;;;;5.85;3.75;;;7.20;99.90;;;;;;4855863;29;20069;-69
2022/12/21 05:12:45;;;;;;;7.07;4.78;;;4.50;99.90;;;;;;4854703;29;20048;-70
2022/12/21 05:15:13;;;;;;;6.05;4.43;;;5.00;99.90;;;;;;4852409;29;20057;-70
2022/12/21 05:17:42;;;;;;;4.85;3.42;;;5.80;99.90;;;;;;4837448;29;21234;-70
2022/12/21 05:20:08;;;;;;;4.60;2.72;;;7.50;99.90;;;;;;4839763;29;20545;-70
2022/12/21 05:22:34;;;;;;;5.05;3.70;;;4.50;99.90;;;;;;4855888;29;20069;-70
2022/12/21 05:25:01;;;;;;;5.03;3.08;;;5.00;99.90;;;;;;4853936;29;20083;-70
2022/12/21 05:27:27;;;;;;;5.50;3.83;;;7.40;99.90;;;;;;4853714;29;20122;-71
2022/12/21 05:29:52;;;;;;;7.47;4.05;;;6.80;99.90;;;;;;4851421;29;20045;-71
2022/12/21 05:32:18;;;;;;;6.75;4.00;;;7.40;99.90;;;;;;4839316;29;20789;-70
2022/12/21 05:34:44;;;;;;;5.90;4.05;;;6.20;99.90;;;;;;4836430;29;20080;-70
2022/12/21 05:37:10;;;;;;;6.97;4.40;;;7.40;99.90;;;;;;4835923;29;20526;-71
2022/12/21 05:39:35;;;;;;;6.45;4.00;;;4.50;99.90;;;;;;4856207;29;20049;-71
2022/12/21 05:42:02;;;;;;;5.07;3.28;;;6.90;99.90;;;;;;4858718;29;20040;-71
2022/12/21 05:44:28;;;;;;;4.75;3.28;;;4.50;99.90;;;;;;4850270;29;20038;-70
2022/12/21 05:46:54;;;;;;;4.43;3.00;;;7.50;99.90;;;;;;4840931;29;20407;-71
2022/12/21 05:49:20;;;;;;;5.22;3.38;;;4.60;99.90;;;;;;4856438;29;20084;-70
2022/12/21 05:51:47;;;;;;;4.65;3.20;;;6.40;99.90;;;;;;4856633;29;20084;-69
2022/12/21 05:54:13;;;;;;;6.45;4.35;;;7.20;99.90;;;;;;4837046;29;20084;-70
2022/12/21 05:56:38;;;;;;;6.38;4.07;;;4.40;99.90;;;;;;4836689;29;20106;-69
2022/12/21 05:59:04;;;;;;;6.72;4.75;;;7.00;99.90;;;;;;4855346;29;20053;-70
2022/12/21 06:01:30;;;;;;;6.80;4.40;;;5.90;99.90;;;;;;4857470;29;20064;-70
2022/12/21 06:03:55;;;;;;;5.93;4.07;;;7.30;99.90;;;;;;4853243;29;20454;-71
2022/12/21 06:06:21;;;;;;;6.40;3.78;;;4.50;99.90;;;;;;4858532;29;20125;-70
2022/12/21 06:08:47;;;;;;;4.68;3.10;;;7.20;99.90;;;;;;4837718;29;20041;-70
2022/12/21 06:11:19;;;;;;;5.05;3.50;;;7.00;99.90;;;;;;4855469;29;20051;-69
2022/12/21 06:13:44;;;;;;;5.93;3.22;;;4.70;99.90;;;;;;4837640;29;20526;-70
2022/12/21 06:16:16;;;;;;;4.07;2.70;;;7.20;99.90;;;;;;4838396;29;20129;-70
2022/12/21 06:18:42;;;;;;;5.22;3.40;;;5.50;99.90;;;;;;4855821;29;20096;-70
2022/12/21 06:21:09;;;;;;;6.70;3.63;;;6.80;99.90;;;;;;4852243;29;20053;-70
2022/12/21 06:23:36;;;;;;;5.38;3.70;;;7.90;99.90;;;;;;4853004;29;20088;-70
2022/12/21 06:26:02;;;;;;;;;;;6.50;99.90;;;;;;4851079;29;20486;-69
2022/12/21 06:28:29;;;;;;;5.85;3.70;;;7.00;99.90;;;;;;4853105;29;20327;-69
2022/12/21 06:31:00;;;;;;;5.38;4.00;;;5.80;99.90;;;;;;4851135;29;20064;-70
2022/12/21 06:33:26;;;;;;;6.45;3.92;;;5.80;99.90;;;;;;4852943;29;20062;-70
2022/12/21 06:35:55;;;;;;;4.82;3.22;;;8.70;99.90;;;;;;4835253;29;20110;-70
2022/12/21 06:38:21;;;;;;;7.20;4.47;;;5.90;99.90;;;;;;4852338;29;20479;-70
2022/12/21 06:40:56;;;;;;;6.45;4.25;;;6.20;99.90;;;;;;4851145;29;20045;-72
2022/12/21 06:43:23;;;;;;;5.72;4.05;;;8.40;99.90;;;;;;4852253;29;20462;-72
2022/12/21 06:45:53;;;;;;;6.32;4.03;;;8.60;99.90;;;;;;4852653;29;20086;-69
2022/12/21 06:48:19;;;;;;;6.10;4.13;;;6.50;99.90;;;;;;4848125;29;20045;-70
2022/12/21 06:50:44;;;;;;;5.45;3.65;;;8.70;99.90;;;;;;4833615;29;20062;-70
2022/12/21 06:53:10;;;;;;;6.10;3.72;;;7.00;99.90;;;;;;4833023;29;20060;-71
2022/12/21 06:55:36;;;;;;;5.65;3.40;;;6.60;99.90;;;;;;4849311;29;20101;-71
2022/12/21 06:58:01;;;;;;;7.22;3.80;;;7.80;99.90;;;;;;4838285;29;20045;-71
2022/12/21 07:00:27;;;;;;;7.45;4.30;;;8.20;99.90;;;;;;4835767;29;20049;-70
2022/12/21 07:02:55;;;;;;;7.07;4.07;;;6.80;99.90;;;;;;4836624;29;20046;-70
2022/12/21 07:05:21;;;;;;;6.30;4.15;;;5.80;99.90;;;;;;4848978;29;20105;-70
2022/12/21 07:07:46;;;;;;;7.05;4.63;;;8.40;99.90;;;;;;4849529;29;20041;-69
2022/12/21 07:10:12;;;;;;;7.30;4.25;;;6.00;99.90;;;;;;4834977;29;20465;-70
2022/12/21 07:12:38;;;;;;;8.82;5.28;;;8.10;99.90;;;;;;4853099;29;20045;-70
2022/12/21 07:15:04;;;;;;;8.32;4.70;;;8.40;99.90;;;;;;4847584;29;20049;-70
2022/12/21 07:17:30;;;;;;;7.45;4.68;;;8.00;99.90;;;;;;4851464;29;20053;-72
2022/12/21 07:19:55;;;;;;;7.30;4.22;;;8.00;99.90;;;;;;4847594;29;20532;-70
2022/12/21 07:22:21;;;;;;;5.57;3.90;;;6.30;99.90;;;;;;4849893;29;20129;-70
2022/12/21 07:24:47;;;;;;;6.60;3.97;;;8.40;99.90;;;;;;4849702;29;20053;-71
2022/12/21 07:27:12;;;;;;;7.07;4.25;;;8.70;99.90;;;;;;4851555;29;20057;-70
2022/12/21 07:29:38;;;;;;;7.05;4.05;;;6.60;99.90;;;;;;4851478;29;20471;-70
2022/12/21 07:32:04;;;;;;;6.68;4.15;;;8.40;99.90;;;;;;4829947;29;20045;-69
2022/12/21 07:34:29;;;;;;;8.23;4.65;;;8.20;99.90;;;;;;4845967;29;20099;-70
2022/12/21 07:36:55;;;;;;;7.15;4.45;;;8.70;99.90;;;;;;4819972;29;20097;-69
2022/12/21 07:39:21;;;;;;;7.35;4.78;;;6.40;99.90;;;;;;4846799;29;20470;-69
2022/12/21 07:41:46;;;;;;;8.07;4.78;;;6.90;99.90;;;;;;4848331;29;20052;-69
2022/12/21 07:44:12;;;;;;;7.47;4.18;;;9.30;99.90;;;;;;4843352;29;20045;-70
2022/12/21 07:46:38;;;;;;;9.25;5.25;;;6.40;99.90;;;;;;4845398;29;20045;-69
2022/12/21 07:49:04;;;;;;;11.77;6.45;;;9.20;99.90;;;;;;4849344;29;20056;-69
2022/12/21 07:51:29;;;;;;;9.27;5.45;;;8.90;99.90;;;;;;4845127;29;20060;-69
2022/12/21 07:53:55;;;;;;;10.38;6.30;;;6.70;99.90;;;;;;4824493;29;20041;-69
2022/12/21 07:56:21;;;;;;;12.60;7.65;;;6.50;99.90;;;;;;4845907;29;20042;-70
2022/12/21 07:58:46;;;;;;;10.57;6.60;;;8.60;99.90;;;;;;4832720;29;20486;-69
2022/12/21 08:01:15;;;;;;;11.85;7.18;;;9.40;99.90;;;;;;4825377;29;20413;-70
2022/12/21 08:03:42;;;;;;;12.50;7.03;;;8.90;99.90;;;;;;4845777;29;20053;-70
2022/12/21 08:06:08;;;;;;;15.40;8.10;;;9.40;99.90;;;;;;4844927;29;20048;-69
2022/12/21 08:08:35;;;;;;;10.82;7.32;;;9.70;99.90;;;;;;4846655;29;20382;-70
2022/12/21 08:11:01;;;;;;;10.40;6.47;;;7.30;99.90;;;;;;4846139;29;20515;-69
2022/12/21 08:13:27;;;;;;;8.93;5.68;;;9.60;99.90;;;;;;4849176;29;20046;-70
2022/12/21 08:16:04;;;;;;;9.45;6.15;;;8.10;99.90;;;;;;4843677;29;20431;-70
2022/12/21 08:18:30;;;;;;;;;;;8.70;99.90;;;;;;4825539;29;20585;-69
2022/12/21 08:20:56;;;;;;;11.27;7.22;;;7.70;99.90;;;;;;4843896;29;19972;-70
2022/12/21 08:23:22;;;;;;;;;;;7.90;99.90;;;;;;4847066;29;20046;-70
2022/12/21 08:25:48;;;;;;;11.48;7.47;;;9.90;99.90;;;;;;4843980;29;19977;-70
2022/12/21 08:28:14;;;;;;;10.60;6.88;;;9.80;99.90;;;;;;4828093;29;20141;-70
2022/12/21 08:30:40;;;;;;;10.25;6.90;;;9.40;99.90;;;;;;4840173;29;20046;-70
2022/12/21 08:33:06;;;;;;;8.93;6.63;;;8.70;99.90;;;;;;4844991;29;20082;-70
2022/12/21 08:35:31;;;;;;;9.27;6.40;;;7.80;99.90;;;;;;4829632;29;20053;-69
2022/12/21 08:37:57;;;;;;;9.85;6.95;;;9.50;99.90;;;;;;4830724;29;20456;-70
2022/12/21 08:40:23;;;;;;;10.50;7.13;;;7.80;99.90;;;;;;4835808;29;20081;-70
2022/12/21 08:42:48;;;;;;;10.15;7.22;;;7.50;99.90;;;;;;4849456;29;20045;-75
2022/12/21 08:45:14;;;;;;;9.75;6.97;;;9.80;99.90;;;;;;4843672;29;20082;-70
2022/12/21 08:47:40;;;;;;;10.38;6.65;;;9.90;99.90;;;;;;4832337;29;20073;-71
2022/12/21 08:50:06;;;;;;;9.10;6.38;;;9.90;99.90;;;;;;4852391;29;20048;-70
2022/12/21 08:52:32;;;;;;;9.80;6.90;;;12.40;99.90;;;;;;4855857;29;20041;-71
2022/12/21 08:54:58;;;;;;;10.18;6.70;;;12.40;99.90;;;;;;4840792;29;20493;-71
2022/12/21 08:57:24;;;;;;;10.98;7.65;;;12.20;99.90;;;;;;4854531;29;20065;-70
2022/12/21 08:59:50;;;;;;;11.55;7.80;;;10.30;99.90;;;;;;4844578;29;20062;-70
2022/12/21 09:02:16;;;;;;;16.52;9.32;;;10.40;99.90;;;;;;4835297;29;20135;-68
2022/12/21 09:04:42;;;;;;;15.05;9.35;;;9.90;99.90;;;;;;4848023;29;20221;-69
2022/12/21 09:07:07;;;;;;;15.25;9.23;;;12.20;99.90;;;;;;4848777;29;20045;-69
2022/12/21 09:09:33;;;;;;;18.08;10.27;;;10.40;99.90;;;;;;4850971;29;20081;-71
2022/12/21 09:12:00;;;;;;;16.23;10.45;;;11.90;99.90;;;;;;4850554;29;20511;-70
2022/12/21 09:14:28;;;;;;;22.67;12.07;;;10.40;99.90;;;;;;4845836;29;20136;-70
2022/12/21 09:16:54;;;;;;;18.80;10.45;;;10.30;99.90;;;;;;4826013;29;20093;-70
2022/12/21 09:19:20;;;;;;;15.60;9.60;;;11.50;99.90;;;;;;4838933;29;20049;-71
2022/12/21 09:21:46;;;;;;;16.88;9.48;;;12.70;99.90;;;;;;4838412;29;20348;-71
2022/12/21 09:24:12;;;;;;;19.42;9.98;;;12.90;99.90;;;;;;4840204;29;20078;-72
2022/12/21 09:26:38;;;;;;;17.65;9.07;;;12.60;99.90;;;;;;4842236;29;20045;-71
2022/12/21 09:29:04;;;;;;;17.60;9.40;;;11.60;99.90;;;;;;4824453;29;20069;-71
2022/12/21 09:31:29;;;;;;;19.58;10.52;;;13.10;99.90;;;;;;4843616;29;20045;-71
2022/12/21 09:33:57;;;;;;;15.63;8.82;;;10.20;99.90;;;;;;4852097;29;20195;-70
2022/12/21 09:36:24;;;;;;;19.58;10.88;;;12.30;99.90;;;;;;4848001;29;20057;-70
2022/12/21 09:38:50;;;;;;;21.17;11.30;;;12.20;99.90;;;;;;4847194;29;20136;-70
2022/12/21 09:41:28;;;;;;;21.92;11.50;;;12.00;99.90;;;;;;4831259;29;20638;-70
2022/12/21 09:44:19;;;;;;;21.45;11.52;;;13.20;99.90;;;;;;4843353;29;20053;-70
2022/12/21 09:46:48;;;;;;;27.85;13.15;;;12.30;99.90;;;;;;4839099;29;20060;-70
2022/12/21 09:49:18;;;;;;;22.10;11.63;;;13.10;99.90;;;;;;4844365;29;20060;-70
2022/12/21 09:51:51;;;;;;;18.42;10.18;;;11.90;99.90;;;;;;4858471;29;20084;-70
2022/12/21 09:54:22;;;;;;;20.83;10.95;;;13.00;99.90;;;;;;4857933;29;20045;-70
2022/12/21 09:56:52;;;;;;;16.30;10.00;;;12.60;99.90;;;;;;4857751;29;20041;-69
2022/12/21 09:59:20;;;;;;;21.40;11.75;;;11.80;99.90;;;;;;4858237;29;20401;-69
2022/12/21 10:01:51;;;;;;;19.77;11.23;;;13.40;99.90;;;;;;4859890;29;20442;-69
2022/12/21 10:04:20;;;;;;;27.42;13.32;;;14.00;99.90;;;;;;4843012;29;20053;-70
2022/12/21 10:06:51;;;;;;;20.13;11.50;;;14.70;99.90;;;;;;4857531;29;20378;-70
2022/12/21 10:09:55;;;;;;;19.63;11.70;;;12.70;99.90;;;;;;4851850;29;20053;-69
2022/12/21 10:12:34;;;;;;;24.63;13.85;;;12.90;99.90;;;;;;4857618;29;20429;-70
2022/12/21 10:15:26;;;;;;;29.30;15.00;;;15.30;99.90;;;;;;4858070;29;20494;-70
2022/12/21 10:18:06;;;;;;;33.35;17.48;;;12.50;99.90;;;;;;4848138;29;20084;-70
2022/12/21 10:20:48;;;;;;;26.75;15.40;;;14.50;99.90;;;;;;4854932;29;20579;-70
2022/12/21 10:23:27;;;;;;;32.10;16.80;;;15.50;99.90;;;;;;4850667;29;20379;-70
2022/12/21 10:26:02;;;;;;;29.40;15.10;;;14.40;99.90;;;;;;4829284;29;20518;-70
2022/12/21 10:28:52;;;;;;;29.70;15.40;;;14.70;99.90;;;;;;4857308;29;20051;-70
2022/12/21 10:31:32;;;;;;;31.55;15.50;;;15.70;99.90;;;;;;4851114;29;20050;-70
2022/12/21 10:33:59;;;;;;;30.25;14.55;;;14.00;99.90;;;;;;4852823;29;20053;-70
2022/12/21 10:36:36;;;;;;;24.25;13.93;;;12.80;99.90;;;;;;4850672;29;20517;-69
2022/12/21 10:39:04;;;;;;;24.00;13.75;;;15.90;99.90;;;;;;4853308;29;20502;-70
2022/12/21 10:41:36;;;;;;;26.77;13.35;;;15.80;99.90;;;;;;4848360;29;20187;-69
2022/12/21 10:44:02;;;;;;;28.40;14.65;;;15.40;99.90;;;;;;4847463;29;20421;-69
2022/12/21 10:46:34;;;;;;;25.10;15.48;;;12.70;99.90;;;;;;4853242;29;20128;-69
2022/12/21 10:49:26;;;;;;;31.05;15.45;;;13.50;99.90;;;;;;4828937;29;20663;-69
2022/12/21 10:51:53;;;;;;;27.25;14.80;;;15.10;99.90;;;;;;4826012;29;20042;-69
2022/12/21 10:54:26;;;;;;;22.45;13.38;;;13.50;99.90;;;;;;4841109;29;20215;-69
2022/12/21 10:56:52;;;;;;;23.15;13.57;;;13.20;99.90;;;;;;4853417;29;20616;-69
2022/12/21 10:59:29;;;;;;;22.45;13.30;;;13.30;99.90;;;;;;4847665;29;20128;-70
2022/12/21 11:01:55;;;;;;;28.27;14.90;;;15.50;99.90;;;;;;4844255;29;20080;-70
2022/12/21 11:04:21;;;;;;;24.77;15.18;;;16.10;99.90;;;;;;4856440;29;20041;-69
2022/12/21 11:06:56;;;;;;;28.07;15.60;;;15.50;99.90;;;;;;4845829;29;20050;-70
2022/12/21 11:09:36;;;;;;;28.17;15.50;;;12.80;99.90;;;;;;4854900;29;20281;-70
2022/12/21 11:12:22;;;;;;;25.77;14.77;;;15.70;99.90;;;;;;4854572;29;20053;-69
2022/12/21 11:14:49;;;;;;;27.45;15.05;;;12.90;99.90;;;;;;4857398;29;20635;-69
2022/12/21 11:17:19;;;;;;;26.20;14.57;;;14.40;99.90;;;;;;4857178;29;20052;-70
2022/12/21 11:19:46;;;;;;;29.13;14.60;;;12.90;99.90;;;;;;4857117;29;20136;-70
2022/12/21 11:22:15;;;;;;;32.90;15.80;;;16.40;99.90;;;;;;4857235;29;20052;-70
2022/12/21 11:24:44;;;;;;;27.48;14.43;;;13.80;99.90;;;;;;4857649;29;20077;-70
2022/12/21 11:27:13;;;;;;;24.00;13.05;;;14.70;99.90;;;;;;4828020;29;20106;-69
2022/12/21 11:29:50;;;;;;;25.95;13.57;;;14.10;99.90;;;;;;4852645;29;20443;-70
2022/12/21 11:32:16;;;;;;;;;;;16.10;99.90;;;;;;4853092;29;20451;-70
2022/12/21 11:34:49;;;;;;;22.92;12.00;;;14.10;99.90;;;;;;4851579;29;19931;-69
2022/12/21 11:37:35;;;;;;;19.80;10.82;;;13.90;99.90;;;;;;4856551;29;20124;-70
2022/12/21 11:40:28;;;;;;;28.25;13.00;;;16.70;99.90;;;;;;4856528;29;20505;-70
2022/12/21 11:43:00;;;;;;;24.40;12.73;;;14.70;99.90;;;;;;4849463;29;20576;-70
2022/12/21 11:45:50;;;;;;;23.98;11.30;;;15.70;99.90;;;;;;4856719;29;20061;-69
2022/12/21 11:48:16;;;;;;;21.73;11.65;;;15.60;99.90;;;;;;4856869;29;20078;-69
2022/12/21 11:51:03;;;;;;;29.90;13.00;;;15.70;99.90;;;;;;4841326;29;20053;-68
2022/12/21 11:53:47;;;;;;;;;;;14.70;99.90;;;;;;4853063;29;20540;-69
2022/12/21 11:56:25;;;;;;;25.67;13.20;;;15.00;99.90;;;;;;4853132;29;19940;-73
2022/12/21 11:58:56;;;;;;;27.70;12.95;;;14.00;99.90;;;;;;4831360;29;20122;-73
2022/12/21 12:01:31;;;;;;;27.45;12.73;;;14.80;99.90;;;;;;4846669;29;20049;-73
2022/12/21 12:04:17;;;;;;;27.35;12.98;;;14.10;99.90;;;;;;4844434;29;20096;-73
2022/12/21 12:07:10;;;;;;;25.85;12.27;;;13.90;99.90;;;;;;4846912;29;20049;-72
2022/12/21 12:09:39;;;;;;;20.88;11.43;;;14.50;99.90;;;;;;4831900;29;20451;-73
2022/12/21 12:12:37;;;;;;;24.52;11.55;;;13.90;99.90;;;;;;4845666;29;20137;-73
2022/12/21 12:15:30;;;;;;;26.98;12.57;;;13.80;99.90;;;;;;4851385;29;20124;-73
2022/12/21 12:18:01;;;;;;;29.90;12.50;;;13.70;99.90;;;;;;4849805;29;20130;-73
2022/12/21 12:20:45;;;;;;;26.58;12.05;;;13.80;99.90;;;;;;4859317;29;20137;-73
2022/12/21 12:23:21;;;;;;;22.73;11.07;;;14.20;99.90;;;;;;4831204;29;20060;-70
2022/12/21 12:26:06;;;;;;;29.17;12.40;;;14.00;99.90;;;;;;4848747;29;20054;-69
2022/12/21 12:29:08;;;;;;;23.67;11.43;;;13.90;99.90;;;;;;4856736;29;20049;-70
2022/12/21 12:32:03;;;;;;;24.27;12.23;;;13.00;99.90;;;;;;4841069;29;20053;-70
2022/12/21 12:34:35;;;;;;;24.05;11.27;;;13.20;99.90;;;;;;4849708;29;20454;-69
2022/12/21 12:37:22;;;;;;;26.27;11.52;;;12.80;99.90;;;;;;4837742;29;20045;-69
2022/12/21 12:40:21;;;;;;;25.67;11.60;;;12.70;99.90;;;;;;4857439;29;20409;-69
2022/12/21 12:42:46;;;;;;;21.55;10.52;;;12.50;99.90;;;;;;4860196;29;20116;-70
2022/12/21 12:45:45;;;;;;;24.42;10.18;;;12.20;99.90;;;;;;4860151;29;20481;-69
2022/12/21 12:48:46;;;;;;;27.38;11.68;;;12.10;99.90;;;;;;4844648;29;20057;-70
2022/12/21 12:51:28;;;;;;;24.25;11.02;;;12.00;99.90;;;;;;4854106;29;20085;-71
2022/12/21 12:54:06;;;;;;;25.95;11.05;;;11.50;99.90;;;;;;4858577;29;20059;-73
2022/12/21 12:57:02;;;;;;;21.83;10.98;;;11.30;99.90;;;;;;4862323;29;20055;-72
2022/12/21 12:59:47;;;;;;;24.10;10.90;;;11.10;99.90;;;;;;4852130;29;20046;-73
2022/12/21 13:02:16;;;;;;;23.67;10.90;;;10.80;99.90;;;;;;4850924;29;20137;-73
2022/12/21 13:05:09;;;;;;;25.13;10.85;;;10.60;99.90;;;;;;4861097;29;20411;-73
2022/12/21 13:07:53;;;;;;;25.88;11.50;;;10.40;99.90;;;;;;4859967;29;20498;-74
2022/12/21 13:10:28;;;;;;;30.98;12.88;;;10.30;99.90;;;;;;4845592;29;20059;-75
2022/12/21 13:13:12;;;;;;;22.92;11.95;;;10.10;99.90;;;;;;4862430;29;20106;-75
2022/12/21 13:15:50;;;;;;;25.20;12.75;;;9.90;99.90;;;;;;4861347;29;20049;-75
2022/12/21 13:18:19;;;;;;;20.67;10.73;;;9.90;99.90;;;;;;4860967;29;20346;-75
2022/12/21 13:20:48;;;;;;;20.92;11.38;;;9.80;99.90;;;;;;4860174;29;20049;-75
2022/12/21 13:23:27;;;;;;;20.33;11.23;;;9.60;99.90;;;;;;4860222;29;20062;-75